createdAt,value
2023-02-06T00:01:27.131Z,65.75
2023-02-06T00:03:54.180Z,58.63
2023-02-06T00:06:21.067Z,52.72
2023-02-06T00:08:47.916Z,56.65
2023-02-06T00:11:16.934Z,38.33
2023-02-06T00:13:45.563Z,51.55
2023-02-06T00:16:33.400Z,37.88
2023-02-06T00:19:00.623Z,47.45
2023-02-06T00:21:28.851Z,57.45
2023-02-06T00:23:57.802Z,58.92
2023-02-06T00:26:25.527Z,55.78
2023-02-06T00:28:52.426Z,45.05
2023-02-06T00:31:19.405Z,57.08
2023-02-06T00:33:46.461Z,40.05
2023-02-06T00:36:13.353Z,50.40
2023-02-06T00:38:40.348Z,46.40
2023-02-06T00:41:07.296Z,49.78
2023-02-06T00:43:34.349Z,49.33
2023-02-06T00:46:01.205Z,51.55
2023-02-06T00:48:28.123Z,43.80
2023-02-06T00:50:55.620Z,49.00
2023-02-06T00:53:22.733Z,56.03
2023-02-06T00:55:49.585Z,49.50
2023-02-06T00:58:16.454Z,58.80
2023-02-06T01:00:43.683Z,52.42
2023-02-06T01:03:10.616Z,38.70
2023-02-06T01:05:37.782Z,46.22
2023-02-06T01:08:05.002Z,46.92
2023-02-06T01:10:32.483Z,46.03
2023-02-06T01:12:59.737Z,41.20
2023-02-06T01:15:26.831Z,57.17
2023-02-06T01:17:53.672Z,51.25
2023-02-06T01:20:21.614Z,46.78
2023-02-06T01:22:48.719Z,54.10
2023-02-06T01:25:15.579Z,43.58
2023-02-06T01:27:42.430Z,63.70
2023-02-06T01:30:10.366Z,41.70
2023-02-06T01:32:38.822Z,50.30
2023-02-06T01:35:07.271Z,45.38
2023-02-06T01:37:34.664Z,53.30
2023-02-06T01:40:01.662Z,53.40
2023-02-06T01:42:28.704Z,46.88
2023-02-06T01:45:26.846Z,52.33
2023-02-06T01:47:59.542Z,47.55
2023-02-06T01:50:27.941Z,52.30
2023-02-06T01:52:55.094Z,44.13
2023-02-06T01:55:21.937Z,62.92
2023-02-06T01:57:49.105Z,45.10
2023-02-06T02:00:16.158Z,42.78
2023-02-06T02:02:45.223Z,55.97
2023-02-06T02:05:13.307Z,54.88
2023-02-06T02:08:01.079Z,48.45
2023-02-06T02:10:30.059Z,47.15
2023-02-06T02:12:57.373Z,48.92
2023-02-06T02:15:38.152Z,54.45
2023-02-06T02:18:28.993Z,49.25
2023-02-06T02:21:15.169Z,58.17
2023-02-06T02:24:00.558Z,57.22
2023-02-06T02:26:49.055Z,48.95
2023-02-06T02:29:27.845Z,53.15
2023-02-06T02:32:08.376Z,52.38
2023-02-06T02:35:12.606Z,55.72
2023-02-06T02:37:55.956Z,49.55
2023-02-06T02:40:40.992Z,39.17
2023-02-06T02:43:46.543Z,59.28
2023-02-06T02:46:38.472Z,53.50
2023-02-06T02:49:11.292Z,46.45
2023-02-06T02:51:39.540Z,47.90
2023-02-06T02:54:06.409Z,50.88
2023-02-06T02:56:33.827Z,45.67
2023-02-06T02:59:32.571Z,44.58
2023-02-06T03:02:04.570Z,56.03
2023-02-06T03:04:37.992Z,44.53
2023-02-06T03:07:21.109Z,55.20
2023-02-06T03:10:01.839Z,47.08
2023-02-06T03:12:37.822Z,45.63
2023-02-06T03:15:13.773Z,44.70
2023-02-06T03:18:05.881Z,46.25
2023-02-06T03:20:34.993Z,53.38
2023-02-06T03:23:03.901Z,50.70
2023-02-06T03:25:38.834Z,54.85
2023-02-06T03:28:12.059Z,39.72
2023-02-06T03:30:42.180Z,59.17
2023-02-06T03:33:13.657Z,60.63
2023-02-06T03:35:41.057Z,57.30
2023-02-06T03:38:09.261Z,61.67
2023-02-06T03:40:37.498Z,61.08
2023-02-06T03:43:05.797Z,55.55
2023-02-06T03:45:38.020Z,55.95
2023-02-06T03:48:11.611Z,50.85
2023-02-06T03:50:42.585Z,45.13
2023-02-06T03:53:12.216Z,47.90
2023-02-06T03:55:41.134Z,49.85
2023-02-06T03:58:12.523Z,43.42
2023-02-06T04:00:42.568Z,45.03
2023-02-06T04:03:11.257Z,54.38
2023-02-06T04:05:38.741Z,57.58
2023-02-06T04:08:06.379Z,43.30
2023-02-06T04:10:33.606Z,50.13
2023-02-06T04:13:00.487Z,44.95
2023-02-06T04:15:27.308Z,59.30
2023-02-06T04:18:00.489Z,57.25
2023-02-06T04:20:29.149Z,49.92
2023-02-06T04:22:56.287Z,55.90
2023-02-06T04:25:23.224Z,51.40
2023-02-06T04:27:50.373Z,45.33
2023-02-06T04:30:18.350Z,49.25
2023-02-06T04:32:45.390Z,45.20
2023-02-06T04:35:12.604Z,60.72
2023-02-06T04:37:39.558Z,57.95
2023-02-06T04:40:06.956Z,46.50
2023-02-06T04:42:33.902Z,57.40
2023-02-06T04:45:00.680Z,57.25
2023-02-06T04:47:27.545Z,54.33
2023-02-06T04:49:55.912Z,62.85
2023-02-06T04:52:22.753Z,63.90
2023-02-06T04:54:49.616Z,49.15
2023-02-06T04:57:16.542Z,60.67
2023-02-06T04:59:43.304Z,57.40
2023-02-06T05:02:10.139Z,54.47
2023-02-06T05:04:39.030Z,65.85
2023-02-06T05:07:06.169Z,68.60
2023-02-06T05:09:32.950Z,50.10
2023-02-06T05:11:59.965Z,63.35
2023-02-06T05:14:26.893Z,54.08
2023-02-06T05:16:53.833Z,65.28
2023-02-06T05:19:20.790Z,58.38
2023-02-06T05:21:47.694Z,55.20
2023-02-06T05:24:14.572Z,52.13
2023-02-06T05:26:41.648Z,73.35
2023-02-06T05:29:08.605Z,52.63
2023-02-06T05:31:35.665Z,61.13
2023-02-06T05:34:02.965Z,58.40
2023-02-06T05:36:29.825Z,60.90
2023-02-06T05:38:56.719Z,48.30
2023-02-06T05:41:23.887Z,52.88
2023-02-06T05:43:50.707Z,43.95
2023-02-06T05:46:17.641Z,44.40
2023-02-06T05:48:44.537Z,50.45
2023-02-06T05:51:11.707Z,61.47
2023-02-06T05:53:38.530Z,57.28
2023-02-06T05:56:05.887Z,56.05
2023-02-06T05:58:32.926Z,46.63
2023-02-06T06:00:59.807Z,51.80
2023-02-06T06:03:26.942Z,43.05
2023-02-06T06:05:54.189Z,47.67
2023-02-06T06:08:21.769Z,46.38
2023-02-06T06:10:52.901Z,56.85
2023-02-06T06:13:19.894Z,61.03
2023-02-06T06:15:51.755Z,65.00
2023-02-06T06:18:20.165Z,53.78
2023-02-06T06:20:47.559Z,57.97
2023-02-06T06:23:14.508Z,53.22
2023-02-06T06:25:41.386Z,61.95
2023-02-06T06:28:08.197Z,57.75
2023-02-06T06:30:35.811Z,60.97
2023-02-06T06:33:02.699Z,46.78
2023-02-06T06:35:29.679Z,58.45
2023-02-06T06:37:56.523Z,52.97
2023-02-06T06:40:23.456Z,62.45
2023-02-06T06:42:50.531Z,52.05
2023-02-06T06:45:17.596Z,58.63
2023-02-06T06:47:44.585Z,56.83
2023-02-06T06:50:11.500Z,46.97
2023-02-06T06:52:38.355Z,57.83
2023-02-06T06:55:05.550Z,51.03
2023-02-06T06:57:32.867Z,53.53
2023-02-06T06:59:59.756Z,52.60
2023-02-06T07:02:28.684Z,58.70
2023-02-06T07:04:55.862Z,66.93
2023-02-06T07:07:22.905Z,52.42
2023-02-06T07:09:49.758Z,56.85
2023-02-06T07:12:16.657Z,61.65
2023-02-06T07:14:43.582Z,56.85
2023-02-06T07:17:10.581Z,68.63
2023-02-06T07:19:37.522Z,56.25
2023-02-06T07:22:04.497Z,68.85
2023-02-06T07:24:31.562Z,61.63
2023-02-06T07:26:58.466Z,64.57
2023-02-06T07:29:25.788Z,53.42
2023-02-06T07:31:52.874Z,73.20
2023-02-06T07:34:19.779Z,67.28
2023-02-06T07:36:47.332Z,69.05
2023-02-06T07:39:14.292Z,68.45
2023-02-06T07:41:41.134Z,72.20
2023-02-06T07:44:08.018Z,63.45
2023-02-06T07:46:34.922Z,61.80
2023-02-06T07:49:01.955Z,61.83
2023-02-06T07:51:29.316Z,64.35
2023-02-06T07:53:56.347Z,77.03
2023-02-06T07:56:25.989Z,57.47
2023-02-06T07:58:54.848Z,59.28
2023-02-06T08:01:23.106Z,62.08
2023-02-06T08:03:54.488Z,66.72
2023-02-06T08:06:24.485Z,65.25
2023-02-06T08:08:52.042Z,80.22
2023-02-06T08:11:20.864Z,62.45
2023-02-06T08:13:48.672Z,76.55
2023-02-06T08:16:18.466Z,71.75
2023-02-06T08:18:45.591Z,81.20
2023-02-06T08:21:16.351Z,81.90
2023-02-06T08:23:43.914Z,59.90
2023-02-06T08:26:17.096Z,72.53
2023-02-06T08:28:45.895Z,58.88
2023-02-06T08:31:20.150Z,70.50
2023-02-06T08:33:47.551Z,62.42
2023-02-06T08:36:15.267Z,62.65
2023-02-06T08:38:44.382Z,63.83
2023-02-06T08:41:17.528Z,73.93
2023-02-06T08:43:46.644Z,97.20
2023-02-06T08:46:14.298Z,81.85
2023-02-06T08:48:41.250Z,67.60
2023-02-06T08:51:09.499Z,62.22
2023-02-06T08:53:37.250Z,58.20
2023-02-06T08:56:09.985Z,90.18
2023-02-06T08:58:37.757Z,75.55
2023-02-06T09:01:19.084Z,82.75
2023-02-06T09:03:46.777Z,47.33
2023-02-06T09:06:14.782Z,59.78
2023-02-06T09:08:42.517Z,50.13
2023-02-06T09:11:15.679Z,58.63
2023-02-06T09:13:44.530Z,48.38
2023-02-06T09:16:12.186Z,62.67
2023-02-06T09:18:39.706Z,52.28
2023-02-06T09:21:16.828Z,52.42
2023-02-06T09:23:49.417Z,51.10
2023-02-06T09:26:21.784Z,48.40
2023-02-06T09:28:54.886Z,48.85
2023-02-06T09:31:21.819Z,49.42
2023-02-06T09:33:48.810Z,38.90
2023-02-06T09:36:18.858Z,45.88
2023-02-06T09:38:48.573Z,41.95
2023-02-06T09:41:44.948Z,42.83
2023-02-06T09:44:44.113Z,51.88
2023-02-06T09:47:34.488Z,41.90
2023-02-06T09:50:07.604Z,38.55
2023-02-06T09:52:59.590Z,52.47
2023-02-06T09:55:42.784Z,34.95
2023-02-06T09:58:22.423Z,35.92
2023-02-06T10:01:06.246Z,35.33
2023-02-06T10:04:00.621Z,38.22
2023-02-06T10:06:34.760Z,36.97
2023-02-06T10:09:35.616Z,44.33
2023-02-06T10:12:13.290Z,36.03
2023-02-06T10:14:52.884Z,37.88
2023-02-06T10:17:30.393Z,44.03
2023-02-06T10:20:19.291Z,41.72
2023-02-06T10:23:04.972Z,42.50
2023-02-06T10:25:36.240Z,49.22
2023-02-06T10:28:17.815Z,60.85
2023-02-06T10:30:59.504Z,39.28
2023-02-06T10:33:33.326Z,38.13
2023-02-06T10:36:23.481Z,50.10
2023-02-06T10:39:40.897Z,46.78
2023-02-06T10:42:32.380Z,35.83
2023-02-06T10:45:19.043Z,35.33
2023-02-06T10:47:59.306Z,31.23
2023-02-06T10:50:34.919Z,49.90
2023-02-06T10:53:11.596Z,70.57
2023-02-06T10:55:49.573Z,48.22
2023-02-06T10:58:22.350Z,48.47
2023-02-06T11:00:51.347Z,33.97
2023-02-06T11:03:21.638Z,40.58
2023-02-06T11:05:50.125Z,38.83
2023-02-06T11:08:26.578Z,50.30
2023-02-06T11:10:53.671Z,32.90
2023-02-06T11:13:29.843Z,38.05
2023-02-06T11:18:35.229Z,29.50
2023-02-06T11:21:02.644Z,35.28
2023-02-06T11:23:31.701Z,30.80
2023-02-06T11:26:15.647Z,42.33
2023-02-06T11:28:58.776Z,35.70
2023-02-06T11:31:51.168Z,36.03
2023-02-06T11:34:26.988Z,35.95
2023-02-06T11:36:59.691Z,35.50
2023-02-06T11:39:30.790Z,39.25
2023-02-06T11:42:07.062Z,34.17
2023-02-06T11:44:42.617Z,27.58
2023-02-06T11:47:32.693Z,46.08
2023-02-06T11:50:14.796Z,28.65
2023-02-06T11:52:46.647Z,24.00
2023-02-06T11:55:24.726Z,33.38
2023-02-06T11:58:12.279Z,101.30
2023-02-06T12:00:54.791Z,32.17
2023-02-06T12:03:50.338Z,26.13
2023-02-06T12:09:09.714Z,27.45
2023-02-06T12:11:46.431Z,25.50
2023-02-06T12:14:34.935Z,25.02
2023-02-06T12:17:04.863Z,23.83
2023-02-06T12:19:44.692Z,27.95
2023-02-06T12:22:17.463Z,25.88
2023-02-06T12:24:48.338Z,26.83
2023-02-06T12:27:18.137Z,26.98
2023-02-06T12:29:57.759Z,25.02
2023-02-06T12:32:43.466Z,26.55
2023-02-06T12:35:21.861Z,23.35
2023-02-06T12:37:58.224Z,26.45
2023-02-06T12:40:39.840Z,27.60
2023-02-06T12:43:15.174Z,27.80
2023-02-06T12:45:57.487Z,54.58
2023-02-06T12:48:27.381Z,27.52
2023-02-06T12:51:20.802Z,22.23
2023-02-06T12:54:03.353Z,20.45
2023-02-06T12:56:42.687Z,26.48
2023-02-06T12:59:09.480Z,31.88
2023-02-06T13:02:01.026Z,19.08
2023-02-06T13:04:32.703Z,21.88
2023-02-06T13:07:14.666Z,25.55
2023-02-06T13:09:52.169Z,17.00
2023-02-06T13:12:33.831Z,17.73
2023-02-06T13:15:05.654Z,15.38
2023-02-06T13:17:36.629Z,14.23
2023-02-06T13:20:17.034Z,24.38
2023-02-06T13:22:49.597Z,19.70
2023-02-06T13:25:28.658Z,19.90
2023-02-06T13:28:01.378Z,26.10
2023-02-06T13:30:31.540Z,17.30
2023-02-06T13:33:23.920Z,17.60
2023-02-06T13:36:05.608Z,18.42
2023-02-06T13:38:35.192Z,13.27
2023-02-06T13:41:14.396Z,15.35
2023-02-06T13:44:15.102Z,18.58
2023-02-06T13:47:08.140Z,14.82
2023-02-06T13:50:08.726Z,18.83
2023-02-06T13:53:13.490Z,18.30
2023-02-06T13:55:52.544Z,21.48
2023-02-06T13:58:31.237Z,21.92
2023-02-06T14:00:59.871Z,11.48
2023-02-06T14:03:30.572Z,15.30
2023-02-06T14:06:34.612Z,19.95
2023-02-06T14:09:04.409Z,19.02
2023-02-06T14:11:39.824Z,16.83
2023-02-06T14:14:17.196Z,21.55
2023-02-06T14:17:03.537Z,27.80
2023-02-06T14:19:53.303Z,20.83
2023-02-06T14:22:20.236Z,22.92
2023-02-06T14:25:20.168Z,19.27
2023-02-06T14:28:12.549Z,16.35
2023-02-06T14:30:59.210Z,24.10
2023-02-06T14:33:35.891Z,40.75
2023-02-06T14:36:39.121Z,17.42
2023-02-06T14:39:40.787Z,31.20
2023-02-06T14:42:31.848Z,28.60
2023-02-06T14:45:21.737Z,21.75
2023-02-06T14:47:49.189Z,26.17
2023-02-06T14:50:35.018Z,21.70
2023-02-06T14:55:41.049Z,18.23
2023-02-06T15:00:54.336Z,20.33
2023-02-06T15:03:24.663Z,20.75
2023-02-06T15:06:07.230Z,18.25
2023-02-06T15:08:34.339Z,25.67
2023-02-06T15:11:18.349Z,27.92
2023-02-06T15:13:54.064Z,26.65
2023-02-06T15:16:21.521Z,24.10
2023-02-06T15:18:49.108Z,27.25
2023-02-06T15:21:19.314Z,25.67
2023-02-06T15:24:12.784Z,23.10
2023-02-06T15:26:55.935Z,31.77
2023-02-06T15:29:26.859Z,22.25
2023-02-06T15:31:56.715Z,21.77
2023-02-06T15:34:25.044Z,17.23
2023-02-06T15:36:52.661Z,26.05
2023-02-06T15:39:19.908Z,20.23
2023-02-06T15:41:50.518Z,19.33
2023-02-06T15:44:33.185Z,29.25
2023-02-06T15:47:04.603Z,22.45
2023-02-06T15:49:38.070Z,25.58
2023-02-06T15:52:05.606Z,19.15
2023-02-06T15:54:33.944Z,21.17
2023-02-06T15:57:27.966Z,14.65
2023-02-06T15:59:56.987Z,23.75
2023-02-06T16:02:31.598Z,23.25
2023-02-06T16:04:58.744Z,22.25
2023-02-06T16:07:32.444Z,21.08
2023-02-06T16:10:08.090Z,28.95
2023-02-06T16:12:37.493Z,27.50
2023-02-06T16:15:32.455Z,16.13
2023-02-06T16:18:01.820Z,25.10
2023-02-06T16:20:37.267Z,26.17
2023-02-06T16:23:29.351Z,28.55
2023-02-06T16:26:14.456Z,28.92
2023-02-06T16:28:55.413Z,23.98
2023-02-06T16:31:22.977Z,16.08
2023-02-06T16:33:52.684Z,18.60
2023-02-06T16:36:22.197Z,15.63
2023-02-06T16:39:02.816Z,21.85
2023-02-06T16:41:37.643Z,19.25
2023-02-06T16:44:10.375Z,20.30
2023-02-06T16:46:37.242Z,13.93
2023-02-06T16:49:15.414Z,19.40
2023-02-06T16:51:44.342Z,22.23
2023-02-06T16:54:27.300Z,26.65
2023-02-06T16:56:57.332Z,32.58
2023-02-06T16:59:24.528Z,18.95
2023-02-06T17:01:51.486Z,22.38
2023-02-06T17:04:18.336Z,29.95
2023-02-06T17:06:45.343Z,27.35
2023-02-06T17:09:17.330Z,23.63
2023-02-06T17:11:44.440Z,20.30
2023-02-06T17:14:11.831Z,22.48
2023-02-06T17:16:38.855Z,22.83
2023-02-06T17:19:05.697Z,26.00
2023-02-06T17:21:33.224Z,41.53
2023-02-06T17:24:00.411Z,25.00
2023-02-06T17:26:27.372Z,37.92
2023-02-06T17:28:54.498Z,22.60
2023-02-06T17:31:21.905Z,23.30
2023-02-06T17:33:49.114Z,28.00
2023-02-06T17:36:29.305Z,26.65
2023-02-06T17:38:59.066Z,24.30
2023-02-06T17:41:27.451Z,28.23
2023-02-06T17:43:54.613Z,22.33
2023-02-06T17:46:21.589Z,22.42
2023-02-06T17:48:48.748Z,30.10
2023-02-06T17:51:15.807Z,28.02
2023-02-06T17:53:42.661Z,32.33
2023-02-06T17:56:12.920Z,28.55
2023-02-06T17:58:43.448Z,28.55
2023-02-06T18:01:12.458Z,27.75
2023-02-06T18:03:39.798Z,25.85
2023-02-06T18:06:06.942Z,31.33
2023-02-06T18:08:33.987Z,31.85
2023-02-06T18:11:00.943Z,30.60
2023-02-06T18:13:28.739Z,29.85
2023-02-06T18:15:57.883Z,21.40
2023-02-06T18:18:26.099Z,27.83
2023-02-06T18:20:53.112Z,26.15
2023-02-06T18:23:20.067Z,28.80
2023-02-06T18:25:46.921Z,30.15
2023-02-06T18:28:14.762Z,29.13
2023-02-06T18:30:42.211Z,25.10
2023-02-06T18:33:09.476Z,27.00
2023-02-06T18:35:41.197Z,29.38
2023-02-06T18:38:09.921Z,29.95
2023-02-06T18:40:38.766Z,29.90
2023-02-06T18:43:06.893Z,30.98
2023-02-06T18:45:36.165Z,27.73
2023-02-06T18:48:04.679Z,29.48
2023-02-06T18:50:32.339Z,31.17
2023-02-06T18:52:59.469Z,29.67
2023-02-06T18:55:26.476Z,27.98
2023-02-06T18:57:53.804Z,35.22
2023-02-06T19:00:22.598Z,29.50
2023-02-06T19:02:50.267Z,30.80
2023-02-06T19:05:17.416Z,25.77
2023-02-06T19:07:49.518Z,28.17
2023-02-06T19:10:16.839Z,28.65
2023-02-06T19:12:44.246Z,34.65
2023-02-06T19:15:11.805Z,26.27
2023-02-06T19:17:38.996Z,28.17
2023-02-06T19:20:06.540Z,33.08
2023-02-06T19:22:37.881Z,30.65
2023-02-06T19:25:10.216Z,28.70
2023-02-06T19:27:38.512Z,32.40
2023-02-06T19:30:07.883Z,32.30
2023-02-06T19:32:35.293Z,35.55
2023-02-06T19:35:03.388Z,26.25
2023-02-06T19:37:30.173Z,36.85
2023-02-06T19:39:57.397Z,43.13
2023-02-06T19:42:24.443Z,35.30
2023-02-06T19:44:53.959Z,41.20
2023-02-06T19:47:21.213Z,30.88
2023-02-06T19:49:51.452Z,44.63
2023-02-06T19:52:18.629Z,40.05
2023-02-06T19:54:47.790Z,48.38
2023-02-06T19:57:16.031Z,44.55
2023-02-06T19:59:43.048Z,46.40
2023-02-06T20:02:14.484Z,44.08
2023-02-06T20:04:42.182Z,47.38
2023-02-06T20:07:09.028Z,48.15
2023-02-06T20:09:41.099Z,43.45
2023-02-06T20:12:10.216Z,46.25
2023-02-06T20:14:37.154Z,49.85
2023-02-06T20:17:04.703Z,48.30
2023-02-06T20:19:32.210Z,45.75
2023-02-06T20:22:00.653Z,48.22
2023-02-06T20:24:30.225Z,43.83
2023-02-06T20:26:59.825Z,43.42
2023-02-06T20:29:33.940Z,47.97
2023-02-06T20:32:01.346Z,45.10
2023-02-06T20:34:28.809Z,45.35
2023-02-06T20:36:56.903Z,43.58
2023-02-06T20:39:24.718Z,43.58
2023-02-06T20:41:51.977Z,45.25
2023-02-06T20:44:19.919Z,43.50
2023-02-06T20:46:47.468Z,50.55
2023-02-06T20:49:22.949Z,57.83
2023-02-06T20:51:50.623Z,60.92
2023-02-06T20:54:19.327Z,43.33
2023-02-06T20:56:46.493Z,50.90
2023-02-06T20:59:15.778Z,47.05
2023-02-06T21:01:43.267Z,68.20
2023-02-06T21:04:12.273Z,59.95
2023-02-06T21:06:39.611Z,58.22
2023-02-06T21:09:08.270Z,56.53
2023-02-06T21:11:39.779Z,55.45
2023-02-06T21:14:07.952Z,50.28
2023-02-06T21:16:37.638Z,57.10
2023-02-06T21:19:07.497Z,49.90
2023-02-06T21:21:34.820Z,48.90
2023-02-06T21:24:01.695Z,55.33
2023-02-06T21:26:28.817Z,53.13
2023-02-06T21:28:56.188Z,60.35
2023-02-06T21:31:25.806Z,51.38
2023-02-06T21:33:53.124Z,45.65
2023-02-06T21:36:21.208Z,54.70
2023-02-06T21:38:48.175Z,44.80
2023-02-06T21:41:18.242Z,58.33
2023-02-06T21:43:45.909Z,47.28
2023-02-06T21:46:13.619Z,49.25
2023-02-06T21:48:41.355Z,44.55
2023-02-06T21:51:14.236Z,42.90
2023-02-06T21:53:42.250Z,45.38
2023-02-06T21:56:13.562Z,48.08
2023-02-06T21:58:40.371Z,50.40
2023-02-06T22:01:08.897Z,56.10
2023-02-06T22:03:36.253Z,67.88
2023-02-06T22:06:08.767Z,56.15
2023-02-06T22:08:40.701Z,54.58
2023-02-06T22:11:16.007Z,45.90
2023-02-06T22:13:43.336Z,49.97
2023-02-06T22:16:11.533Z,41.55
2023-02-06T22:18:38.925Z,42.88
2023-02-06T22:21:08.535Z,47.22
2023-02-06T22:23:36.372Z,52.15
2023-02-06T22:26:03.892Z,38.03
2023-02-06T22:28:31.406Z,45.40
2023-02-06T22:31:06.252Z,36.88
2023-02-06T22:33:33.468Z,33.17
2023-02-06T22:36:03.762Z,46.35
2023-02-06T22:38:30.638Z,39.42
2023-02-06T22:41:03.413Z,46.42
2023-02-06T22:43:31.380Z,54.72
2023-02-06T22:45:58.414Z,41.97
2023-02-06T22:48:25.675Z,45.97
2023-02-06T22:50:55.555Z,39.40
2023-02-06T22:53:29.707Z,46.53
2023-02-06T22:56:24.180Z,57.08
2023-02-06T22:58:51.875Z,50.78
2023-02-06T23:01:21.494Z,47.53
2023-02-06T23:03:52.342Z,54.50
2023-02-06T23:06:19.438Z,53.35
2023-02-06T23:08:46.615Z,56.33
2023-02-06T23:11:15.235Z,51.10
2023-02-06T23:13:42.516Z,49.50
2023-02-06T23:16:10.251Z,49.45
2023-02-06T23:18:37.571Z,50.50
2023-02-06T23:21:10.826Z,56.10
2023-02-06T23:23:38.238Z,47.78
2023-02-06T23:26:10.170Z,51.13
2023-02-06T23:28:37.777Z,57.88
2023-02-06T23:31:05.758Z,51.92
2023-02-06T23:33:33.383Z,59.78
2023-02-06T23:36:08.305Z,56.17
2023-02-06T23:38:35.658Z,55.63
2023-02-06T23:41:14.136Z,56.55
2023-02-06T23:43:41.633Z,57.95
2023-02-06T23:46:12.133Z,60.63
2023-02-06T23:48:39.936Z,59.90
2023-02-06T23:51:06.967Z,50.78
2023-02-06T23:53:33.955Z,60.20
2023-02-06T23:56:00.915Z,54.88
2023-02-06T23:58:27.895Z,57.15
